createdAt,value
2023-10-27T00:01:35.609Z,28.97
2023-10-27T00:04:03.069Z,19.30
2023-10-27T00:06:34.319Z,25.37
2023-10-27T00:09:02.680Z,27.23
2023-10-27T00:11:30.258Z,29.40
2023-10-27T00:13:57.635Z,30.87
2023-10-27T00:16:25.081Z,22.10
2023-10-27T00:18:52.653Z,29.27
2023-10-27T00:21:20.220Z,31.93
2023-10-27T00:23:47.589Z,25.57
2023-10-27T00:26:15.233Z,26.63
2023-10-27T00:28:42.733Z,24.13
2023-10-27T00:31:10.193Z,26.53
2023-10-27T00:33:37.624Z,23.83
2023-10-27T00:36:06.212Z,27.87
2023-10-27T00:38:33.623Z,25.80
2023-10-27T00:41:01.009Z,22.67
2023-10-27T00:43:28.467Z,28.70
2023-10-27T00:45:56.405Z,29.57
2023-10-27T00:48:24.012Z,26.90
2023-10-27T00:50:51.605Z,30.30
2023-10-27T00:53:22.668Z,27.40
2023-10-27T00:55:51.605Z,33.13
2023-10-27T00:58:21.255Z,32.00
2023-10-27T01:00:48.858Z,29.77
2023-10-27T01:03:16.264Z,29.53
2023-10-27T01:05:43.763Z,32.17
2023-10-27T01:08:11.204Z,25.77
2023-10-27T01:10:38.690Z,25.43
2023-10-27T01:13:06.241Z,25.07
2023-10-27T01:15:33.590Z,28.97
2023-10-27T01:18:01.064Z,21.77
2023-10-27T01:20:28.605Z,28.40
2023-10-27T01:22:56.082Z,25.63
2023-10-27T01:25:24.308Z,22.20
2023-10-27T01:27:51.795Z,26.40
2023-10-27T01:30:19.322Z,24.27
2023-10-27T01:32:47.094Z,23.03
2023-10-27T01:35:14.915Z,32.17
2023-10-27T01:37:42.637Z,26.77
2023-10-27T01:40:11.752Z,26.60
2023-10-27T01:42:39.557Z,27.90
2023-10-27T01:45:08.209Z,27.43
2023-10-27T01:47:35.841Z,25.00
2023-10-27T01:50:03.316Z,27.93
2023-10-27T01:52:30.756Z,27.53
2023-10-27T01:54:59.351Z,28.13
2023-10-27T01:57:27.094Z,28.53
2023-10-27T01:59:54.567Z,30.37
2023-10-27T02:02:22.287Z,27.20
2023-10-27T02:04:52.805Z,36.83
2023-10-27T02:07:25.370Z,32.03
2023-10-27T02:09:53.614Z,33.33
2023-10-27T02:12:20.966Z,26.53
2023-10-27T02:14:48.411Z,32.60
2023-10-27T02:17:15.812Z,27.50
2023-10-27T02:19:43.624Z,28.57
2023-10-27T02:22:11.363Z,27.23
2023-10-27T02:24:45.809Z,27.63
2023-10-27T02:27:13.355Z,35.47
2023-10-27T02:29:40.720Z,28.03
2023-10-27T02:32:08.336Z,29.40
2023-10-27T02:34:35.764Z,28.23
2023-10-27T02:37:03.350Z,29.23
2023-10-27T02:39:30.719Z,26.20
2023-10-27T02:41:58.241Z,29.00
2023-10-27T02:44:25.606Z,31.00
2023-10-27T02:46:53.377Z,39.17
2023-10-27T02:49:20.832Z,28.57
2023-10-27T02:51:48.294Z,27.30
2023-10-27T02:54:15.732Z,33.70
2023-10-27T02:56:43.138Z,32.20
2023-10-27T02:59:10.836Z,35.93
2023-10-27T03:01:38.685Z,40.80
2023-10-27T03:04:06.563Z,43.00
2023-10-27T03:06:34.092Z,39.67
2023-10-27T03:09:01.568Z,38.03
2023-10-27T03:11:28.959Z,32.37
2023-10-27T03:13:56.598Z,42.70
2023-10-27T03:16:24.056Z,38.70
2023-10-27T03:18:52.117Z,40.73
2023-10-27T03:21:19.667Z,30.93
2023-10-27T03:23:47.096Z,34.10
2023-10-27T03:26:14.479Z,39.87
2023-10-27T03:28:43.607Z,32.40
2023-10-27T03:31:14.731Z,37.23
2023-10-27T03:33:42.234Z,37.40
2023-10-27T03:36:10.309Z,45.70
2023-10-27T03:38:37.742Z,37.13
2023-10-27T03:41:05.364Z,34.27
2023-10-27T03:43:36.016Z,34.50
2023-10-27T03:46:04.061Z,37.93
2023-10-27T03:48:31.579Z,38.83
2023-10-27T03:50:59.314Z,34.93
2023-10-27T03:53:26.668Z,37.63
2023-10-27T03:55:55.102Z,34.27
2023-10-27T03:58:27.503Z,35.57
2023-10-27T04:01:00.974Z,40.97
2023-10-27T04:03:30.240Z,39.33
2023-10-27T04:05:57.756Z,32.77
2023-10-27T04:08:25.330Z,35.47
2023-10-27T04:10:53.372Z,38.00
2023-10-27T04:13:21.431Z,37.63
2023-10-27T04:15:48.803Z,36.73
2023-10-27T04:18:16.258Z,32.77
2023-10-27T04:20:43.723Z,32.43
2023-10-27T04:23:11.158Z,39.07
2023-10-27T04:25:40.566Z,36.20
2023-10-27T04:28:08.177Z,35.97
2023-10-27T04:30:37.777Z,37.70
2023-10-27T04:33:11.522Z,41.60
2023-10-27T04:35:39.276Z,40.33
2023-10-27T04:38:06.596Z,47.23
2023-10-27T04:40:35.785Z,40.03
2023-10-27T04:43:06.774Z,36.40
2023-10-27T04:45:34.271Z,35.50
2023-10-27T04:48:01.625Z,40.60
2023-10-27T04:50:29.421Z,36.70
2023-10-27T04:52:56.917Z,33.17
2023-10-27T04:55:25.214Z,34.10
2023-10-27T04:57:53.013Z,33.57
2023-10-27T05:00:20.574Z,43.53
2023-10-27T05:02:48.329Z,34.23
2023-10-27T05:05:15.858Z,37.10
2023-10-27T05:07:43.660Z,42.73
2023-10-27T05:10:11.328Z,40.47
2023-10-27T05:12:39.268Z,38.70
2023-10-27T05:15:07.752Z,36.27
2023-10-27T05:17:37.217Z,36.33
2023-10-27T05:20:09.937Z,34.70
2023-10-27T05:22:37.310Z,37.43
2023-10-27T05:25:10.784Z,33.80
2023-10-27T05:27:38.558Z,33.63
2023-10-27T05:30:07.438Z,39.93
2023-10-27T05:32:34.947Z,31.80
2023-10-27T05:35:02.660Z,34.83
2023-10-27T05:37:30.185Z,37.23
2023-10-27T05:39:57.731Z,34.57
2023-10-27T05:42:25.244Z,36.93
2023-10-27T05:44:52.784Z,34.53
2023-10-27T05:47:21.165Z,36.73
2023-10-27T05:49:48.836Z,31.73
2023-10-27T05:52:17.606Z,35.80
2023-10-27T05:54:47.226Z,30.57
2023-10-27T05:57:16.230Z,31.10
2023-10-27T05:59:44.182Z,32.10
2023-10-27T06:02:15.635Z,27.93
2023-10-27T06:04:44.508Z,29.73
2023-10-27T06:07:16.964Z,34.03
2023-10-27T06:09:46.172Z,30.77
2023-10-27T06:12:13.944Z,27.57
2023-10-27T06:14:46.006Z,30.63
2023-10-27T06:17:14.800Z,30.83
2023-10-27T06:19:42.368Z,32.67
2023-10-27T06:22:10.962Z,33.03
2023-10-27T06:24:38.476Z,32.83
2023-10-27T06:27:07.024Z,37.60
2023-10-27T06:29:35.519Z,38.27
2023-10-27T06:32:04.849Z,35.53
2023-10-27T06:34:32.542Z,29.73
2023-10-27T06:37:01.620Z,33.00
2023-10-27T06:39:29.877Z,29.70
2023-10-27T06:41:57.297Z,35.73
2023-10-27T06:44:24.735Z,31.53
2023-10-27T06:46:52.344Z,28.13
2023-10-27T06:49:27.013Z,29.90
2023-10-27T06:51:54.892Z,30.40
2023-10-27T06:54:22.680Z,40.60
2023-10-27T06:56:51.924Z,35.80
2023-10-27T06:59:20.041Z,31.03
2023-10-27T07:01:47.516Z,31.97
2023-10-27T07:04:15.185Z,30.77
2023-10-27T07:06:45.763Z,33.40
2023-10-27T07:09:13.190Z,28.57
2023-10-27T07:11:40.625Z,31.07
2023-10-27T07:14:08.251Z,30.00
2023-10-27T07:16:36.019Z,30.23
2023-10-27T07:19:05.323Z,32.37
2023-10-27T07:21:32.850Z,33.70
2023-10-27T07:24:00.342Z,32.70
2023-10-27T07:26:28.087Z,35.90
2023-10-27T07:28:55.622Z,35.87
2023-10-27T07:31:23.183Z,31.87
2023-10-27T07:33:50.647Z,31.03
2023-10-27T07:36:18.425Z,34.53
2023-10-27T07:38:46.067Z,33.90
2023-10-27T07:41:13.937Z,34.10
2023-10-27T07:43:41.381Z,33.73
2023-10-27T07:46:09.355Z,31.53
2023-10-27T07:48:36.986Z,37.03
2023-10-27T07:51:05.104Z,35.33
2023-10-27T07:53:32.796Z,33.63
2023-10-27T07:56:01.076Z,33.50
2023-10-27T07:58:28.853Z,33.30
2023-10-27T08:00:57.209Z,35.97
2023-10-27T08:03:26.392Z,36.87
2023-10-27T08:05:54.260Z,35.87
2023-10-27T08:08:24.844Z,33.20
2023-10-27T08:10:52.648Z,30.80
2023-10-27T08:13:22.567Z,31.30
2023-10-27T08:15:50.828Z,29.63
2023-10-27T08:18:18.539Z,30.60
2023-10-27T08:20:46.626Z,31.27
2023-10-27T08:23:14.097Z,32.90
2023-10-27T08:25:41.839Z,28.00
2023-10-27T08:28:09.703Z,31.03
2023-10-27T08:30:37.391Z,25.87
2023-10-27T08:33:04.929Z,26.23
2023-10-27T08:35:33.888Z,27.53
2023-10-27T08:38:01.739Z,26.23
2023-10-27T08:40:32.686Z,24.63
2023-10-27T08:43:00.671Z,24.83
2023-10-27T08:45:29.447Z,26.37
2023-10-27T08:48:02.354Z,23.87
2023-10-27T08:50:36.229Z,26.10
2023-10-27T08:53:05.935Z,24.97
2023-10-27T08:55:34.089Z,24.03
2023-10-27T08:58:02.388Z,25.33
2023-10-27T09:00:29.895Z,26.97
2023-10-27T09:03:15.081Z,28.23
2023-10-27T09:05:43.554Z,27.73
2023-10-27T09:08:12.332Z,24.23
2023-10-27T09:10:48.161Z,26.50
2023-10-27T09:13:25.917Z,22.27
2023-10-27T09:15:53.930Z,25.63
2023-10-27T09:18:37.197Z,23.50
2023-10-27T09:21:05.715Z,23.53
2023-10-27T09:23:46.805Z,21.53
2023-10-27T09:26:14.329Z,23.13
2023-10-27T09:28:42.189Z,20.53
2023-10-27T09:31:09.958Z,18.10
2023-10-27T09:33:37.898Z,17.67
2023-10-27T09:36:06.403Z,15.53
2023-10-27T09:38:33.786Z,15.47
2023-10-27T09:41:05.422Z,14.50
2023-10-27T09:43:39.828Z,16.00
2023-10-27T09:46:09.039Z,16.43
2023-10-27T09:48:38.618Z,15.30
2023-10-27T09:51:17.986Z,19.20
2023-10-27T09:53:49.203Z,16.17
2023-10-27T09:56:19.234Z,18.97
2023-10-27T09:58:47.085Z,18.80
2023-10-27T10:01:16.914Z,17.10
2023-10-27T10:03:45.075Z,18.40
2023-10-27T10:06:31.172Z,15.43
2023-10-27T10:09:20.448Z,15.97
2023-10-27T10:11:55.880Z,16.23
2023-10-27T10:14:38.245Z,15.10
2023-10-27T10:17:07.142Z,17.00
2023-10-27T10:19:52.021Z,14.63
2023-10-27T10:22:41.670Z,13.90
2023-10-27T10:25:22.689Z,16.47
2023-10-27T10:28:08.646Z,15.13
2023-10-27T10:30:48.189Z,15.53
2023-10-27T10:33:18.461Z,12.77
2023-10-27T10:35:48.433Z,13.93
2023-10-27T10:38:22.773Z,12.03
2023-10-27T10:41:02.784Z,11.57
2023-10-27T10:43:35.844Z,13.30
2023-10-27T10:46:06.597Z,12.10
2023-10-27T10:48:46.351Z,11.53
2023-10-27T10:51:20.414Z,10.77
2023-10-27T10:53:55.895Z,10.63
2023-10-27T10:56:25.793Z,11.97
2023-10-27T10:58:55.580Z,14.00
2023-10-27T11:01:24.915Z,11.30
2023-10-27T11:03:55.723Z,12.70
2023-10-27T11:06:30.630Z,12.53
2023-10-27T11:08:58.057Z,11.17
2023-10-27T11:11:38.246Z,12.87
2023-10-27T11:14:09.571Z,15.43
2023-10-27T11:16:38.304Z,13.53
2023-10-27T11:19:17.966Z,16.80
2023-10-27T11:21:45.556Z,15.03
2023-10-27T11:24:14.138Z,12.37
2023-10-27T11:26:43.646Z,13.57
2023-10-27T11:29:11.935Z,12.40
2023-10-27T11:31:44.075Z,12.70
2023-10-27T11:34:14.426Z,12.43
2023-10-27T11:37:08.727Z,16.60
2023-10-27T11:39:37.013Z,13.30
2023-10-27T11:42:04.985Z,16.43
2023-10-27T11:44:41.980Z,16.37
2023-10-27T11:47:09.428Z,16.27
2023-10-27T11:49:36.875Z,18.50
2023-10-27T11:52:06.475Z,16.77
2023-10-27T11:54:33.983Z,19.23
2023-10-27T11:57:01.647Z,22.33
2023-10-27T11:59:31.366Z,22.83
2023-10-27T12:01:58.783Z,76.50
2023-10-27T12:04:26.549Z,40.07
2023-10-27T12:06:55.232Z,39.13
2023-10-27T12:09:23.540Z,45.27
2023-10-27T12:11:51.700Z,79.10
2023-10-27T12:14:19.130Z,34.03
2023-10-27T12:16:46.565Z,29.00
2023-10-27T12:19:17.204Z,26.57
2023-10-27T12:21:44.765Z,19.87
2023-10-27T12:24:12.732Z,20.13
2023-10-27T12:26:40.201Z,19.93
2023-10-27T12:29:09.666Z,21.20
2023-10-27T12:31:42.778Z,26.07
2023-10-27T12:34:10.477Z,19.87
2023-10-27T12:36:37.901Z,71.43
2023-10-27T12:39:05.535Z,33.57
2023-10-27T12:41:33.228Z,21.50
2023-10-27T12:44:01.406Z,29.20
2023-10-27T12:46:29.229Z,24.60
2023-10-27T12:48:56.734Z,31.27
2023-10-27T12:51:24.449Z,38.37
2023-10-27T12:53:52.641Z,21.13
2023-10-27T12:56:20.098Z,40.60
2023-10-27T12:58:47.805Z,62.53
2023-10-27T13:01:15.380Z,26.50
2023-10-27T13:03:42.839Z,48.83
2023-10-27T13:06:17.554Z,22.50
2023-10-27T13:08:45.054Z,34.27
2023-10-27T13:11:14.508Z,48.07
2023-10-27T13:13:42.083Z,23.57
2023-10-27T13:16:16.588Z,22.47
2023-10-27T13:18:44.472Z,26.73
2023-10-27T13:21:16.491Z,23.50
2023-10-27T13:23:44.510Z,20.60
2023-10-27T13:26:12.368Z,30.13
2023-10-27T13:28:39.925Z,22.77
2023-10-27T13:31:07.843Z,23.33
2023-10-27T13:33:35.729Z,20.47
2023-10-27T13:36:10.728Z,19.47
2023-10-27T13:38:39.774Z,21.23
2023-10-27T13:41:24.975Z,20.97
2023-10-27T13:43:52.569Z,24.23
2023-10-27T13:46:20.139Z,20.40
2023-10-27T13:48:48.380Z,24.33
2023-10-27T13:51:15.894Z,20.07
2023-10-27T13:53:43.849Z,20.90
2023-10-27T13:56:14.418Z,22.77
2023-10-27T13:58:45.709Z,20.33
2023-10-27T14:01:13.264Z,20.90
2023-10-27T14:03:41.078Z,20.93
2023-10-27T14:06:13.266Z,21.70
2023-10-27T14:08:42.840Z,20.40
2023-10-27T14:11:11.029Z,18.77
2023-10-27T14:13:38.600Z,20.33
2023-10-27T14:16:13.441Z,19.20
2023-10-27T14:18:41.564Z,20.27
2023-10-27T14:21:09.426Z,18.13
2023-10-27T14:23:37.285Z,21.43
2023-10-27T14:26:05.290Z,17.93
2023-10-27T14:28:34.437Z,20.03
2023-10-27T14:31:04.210Z,17.57
2023-10-27T14:33:31.631Z,17.70
2023-10-27T14:36:03.860Z,16.63
2023-10-27T14:38:31.775Z,19.60
2023-10-27T14:41:00.599Z,18.90
2023-10-27T14:43:28.136Z,22.03
2023-10-27T14:46:03.858Z,17.37
2023-10-27T14:48:32.454Z,18.30
2023-10-27T14:51:11.810Z,17.33
2023-10-27T14:53:39.281Z,17.40
2023-10-27T14:56:11.699Z,21.13
2023-10-27T14:58:40.616Z,19.47
2023-10-27T15:01:13.052Z,15.73
2023-10-27T15:03:40.755Z,16.20
2023-10-27T15:06:10.541Z,19.23
2023-10-27T15:08:39.866Z,17.10
2023-10-27T15:11:10.908Z,16.30
2023-10-27T15:13:38.758Z,17.20
2023-10-27T15:16:14.956Z,17.63
2023-10-27T15:18:43.472Z,15.63
2023-10-27T15:21:13.495Z,17.57
2023-10-27T15:23:41.290Z,15.07
2023-10-27T15:26:09.788Z,16.67
2023-10-27T15:28:37.249Z,16.20
2023-10-27T15:31:10.237Z,15.30
2023-10-27T15:33:39.835Z,16.67
2023-10-27T15:36:12.398Z,19.33
2023-10-27T15:38:44.318Z,18.43
2023-10-27T15:41:40.057Z,18.30
2023-10-27T15:44:08.867Z,17.53
2023-10-27T15:46:38.009Z,15.47
2023-10-27T15:49:05.467Z,16.57
2023-10-27T15:51:32.881Z,17.60
2023-10-27T15:54:01.476Z,16.13
2023-10-27T15:56:29.043Z,17.67
2023-10-27T15:59:03.794Z,13.70
2023-10-27T16:01:31.474Z,13.00
2023-10-27T16:03:59.020Z,15.80
2023-10-27T16:06:26.545Z,15.93
2023-10-27T16:08:55.235Z,15.20
2023-10-27T16:11:24.580Z,15.37
2023-10-27T16:13:52.753Z,18.43
2023-10-27T16:16:20.237Z,16.97
2023-10-27T16:18:49.229Z,14.10
2023-10-27T16:21:17.534Z,16.93
2023-10-27T16:23:45.170Z,17.57
2023-10-27T16:26:12.823Z,17.23
2023-10-27T16:28:40.540Z,16.23
2023-10-27T16:31:08.206Z,14.80
2023-10-27T16:33:35.899Z,16.80
2023-10-27T16:36:08.351Z,17.23
2023-10-27T16:38:35.853Z,14.60
2023-10-27T16:41:06.620Z,16.30
2023-10-27T16:43:45.930Z,20.00
2023-10-27T16:46:14.388Z,17.10
2023-10-27T16:48:42.379Z,15.67
2023-10-27T16:51:16.626Z,17.00
2023-10-27T16:53:44.880Z,21.27
2023-10-27T16:56:14.343Z,19.60
2023-10-27T16:58:41.992Z,16.27
2023-10-27T17:01:09.586Z,18.67
2023-10-27T17:03:37.797Z,18.23
2023-10-27T17:06:06.777Z,23.33
2023-10-27T17:08:34.616Z,15.60
2023-10-27T17:11:03.959Z,16.67
2023-10-27T17:13:31.406Z,17.47
2023-10-27T17:16:10.136Z,18.63
2023-10-27T17:18:43.292Z,18.37
2023-10-27T17:21:22.060Z,16.80
2023-10-27T17:24:00.197Z,19.17
2023-10-27T17:26:27.566Z,16.33
2023-10-27T17:28:54.986Z,17.80
2023-10-27T17:31:26.968Z,19.30
2023-10-27T17:33:59.500Z,19.47
2023-10-27T17:36:29.748Z,24.20
2023-10-27T17:38:57.823Z,19.20
2023-10-27T17:41:25.570Z,24.13
2023-10-27T17:43:53.036Z,18.27
2023-10-27T17:46:20.874Z,19.97
2023-10-27T17:48:49.975Z,19.10
2023-10-27T17:51:17.757Z,19.33
2023-10-27T17:53:45.413Z,20.10
2023-10-27T17:56:13.636Z,19.50
2023-10-27T17:58:41.152Z,22.27
2023-10-27T18:01:11.797Z,19.93
2023-10-27T18:03:41.347Z,22.20
2023-10-27T18:06:13.575Z,25.87
2023-10-27T18:08:41.167Z,23.07
2023-10-27T18:11:09.828Z,19.60
2023-10-27T18:13:37.685Z,22.33
2023-10-27T18:16:09.580Z,21.07
2023-10-27T18:18:37.749Z,18.20
2023-10-27T18:21:08.118Z,20.40
2023-10-27T18:23:36.530Z,20.97
2023-10-27T18:26:18.669Z,20.30
2023-10-27T18:28:49.280Z,23.07
2023-10-27T18:31:20.137Z,20.30
2023-10-27T18:33:47.623Z,19.97
2023-10-27T18:36:19.328Z,17.67
2023-10-27T18:38:49.740Z,23.30
2023-10-27T18:41:21.689Z,17.90
2023-10-27T18:43:53.456Z,16.70
2023-10-27T18:46:21.097Z,16.30
2023-10-27T18:48:49.196Z,16.43
2023-10-27T18:51:17.024Z,15.97
2023-10-27T18:53:46.188Z,21.60
2023-10-27T18:56:14.864Z,22.33
2023-10-27T18:58:47.058Z,19.60
2023-10-27T19:01:15.996Z,19.70
2023-10-27T19:03:50.682Z,18.57
2023-10-27T19:06:19.624Z,18.47
2023-10-27T19:08:47.208Z,20.00
2023-10-27T19:11:16.105Z,18.23
2023-10-27T19:13:44.532Z,19.80
2023-10-27T19:16:15.692Z,18.17
2023-10-27T19:18:46.497Z,17.33
2023-10-27T19:21:18.420Z,22.60
2023-10-27T19:23:52.114Z,16.20
2023-10-27T19:26:25.449Z,20.97
2023-10-27T19:28:55.664Z,23.10
2023-10-27T19:31:26.901Z,20.23
2023-10-27T19:33:56.869Z,23.20
2023-10-27T19:36:31.278Z,17.63
2023-10-27T19:38:58.958Z,17.77
2023-10-27T19:41:29.385Z,24.67
2023-10-27T19:43:57.025Z,19.50
2023-10-27T19:46:25.008Z,20.10
2023-10-27T19:48:53.602Z,21.20
2023-10-27T19:51:20.977Z,18.70
2023-10-27T19:53:48.619Z,17.60
2023-10-27T19:56:17.953Z,20.80
2023-10-27T19:58:48.753Z,21.90
2023-10-27T20:01:22.954Z,18.77
2023-10-27T20:03:51.840Z,19.37
2023-10-27T20:06:22.131Z,18.87
2023-10-27T20:08:51.504Z,18.97
2023-10-27T20:11:19.037Z,17.47
2023-10-27T20:13:47.773Z,21.83
2023-10-27T20:16:20.957Z,19.97
2023-10-27T20:18:49.677Z,16.17
2023-10-27T20:21:17.351Z,18.60
2023-10-27T20:23:46.665Z,22.93
2023-10-27T20:26:15.797Z,19.97
2023-10-27T20:28:43.315Z,23.77
2023-10-27T20:31:13.967Z,19.17
2023-10-27T20:33:41.530Z,21.37
2023-10-27T20:36:09.371Z,18.43
2023-10-27T20:38:38.222Z,21.43
2023-10-27T20:41:06.242Z,22.10
2023-10-27T20:43:33.898Z,20.40
2023-10-27T20:46:04.713Z,17.93
2023-10-27T20:48:32.596Z,18.17
2023-10-27T20:51:04.585Z,20.87
2023-10-27T20:53:32.158Z,18.43
2023-10-27T20:56:00.812Z,22.00
2023-10-27T20:58:28.548Z,15.53
2023-10-27T21:00:56.279Z,20.43
2023-10-27T21:03:23.874Z,21.77
2023-10-27T21:05:51.449Z,16.87
2023-10-27T21:08:18.930Z,20.03
2023-10-27T21:10:46.566Z,19.53
2023-10-27T21:13:15.398Z,17.13
2023-10-27T21:15:42.843Z,21.47
2023-10-27T21:18:11.075Z,21.20
2023-10-27T21:20:40.446Z,17.53
2023-10-27T21:23:11.049Z,18.83
2023-10-27T21:25:38.593Z,20.23
2023-10-27T21:28:06.959Z,21.57
2023-10-27T21:30:34.517Z,19.63
2023-10-27T21:33:01.951Z,20.33
2023-10-27T21:35:29.276Z,19.20
2023-10-27T21:37:58.426Z,21.00
2023-10-27T21:40:25.920Z,24.20
2023-10-27T21:42:53.346Z,20.67
2023-10-27T21:45:20.768Z,19.13
2023-10-27T21:47:48.319Z,20.63
2023-10-27T21:50:16.466Z,19.67
2023-10-27T21:52:43.948Z,20.00
2023-10-27T21:55:11.496Z,21.90
2023-10-27T21:57:38.838Z,21.30
2023-10-27T22:00:29.859Z,19.53
2023-10-27T22:02:57.541Z,22.77
2023-10-27T22:05:25.768Z,16.73
2023-10-27T22:07:54.231Z,17.43
2023-10-27T22:10:21.801Z,20.10
2023-10-27T22:12:49.556Z,22.20
2023-10-27T22:15:17.606Z,18.50
2023-10-27T22:17:47.831Z,19.40
2023-10-27T22:20:16.158Z,20.23
2023-10-27T22:22:43.804Z,20.57
2023-10-27T22:25:11.230Z,21.27
2023-10-27T22:27:38.661Z,19.97
2023-10-27T22:30:08.225Z,19.53
2023-10-27T22:32:36.251Z,18.30
2023-10-27T22:35:04.386Z,19.53
2023-10-27T22:37:32.155Z,20.70
2023-10-27T22:39:59.583Z,22.37
2023-10-27T22:42:26.926Z,20.77
2023-10-27T22:44:54.389Z,19.90
2023-10-27T22:47:22.603Z,18.50
2023-10-27T22:49:50.576Z,16.40
2023-10-27T22:52:18.025Z,22.07
2023-10-27T22:54:45.325Z,19.30
2023-10-27T22:57:12.672Z,18.80
2023-10-27T22:59:40.614Z,22.87
2023-10-27T23:02:09.189Z,20.47
2023-10-27T23:04:36.969Z,22.37
2023-10-27T23:07:05.579Z,20.70
2023-10-27T23:09:33.078Z,22.03
2023-10-27T23:12:00.495Z,22.63
2023-10-27T23:14:28.104Z,24.93
2023-10-27T23:16:55.772Z,27.07
2023-10-27T23:19:24.850Z,23.70
2023-10-27T23:21:52.801Z,24.50
2023-10-27T23:24:20.452Z,26.73
2023-10-27T23:26:47.955Z,23.43
2023-10-27T23:29:15.683Z,24.73
2023-10-27T23:31:43.448Z,23.70
2023-10-27T23:34:10.777Z,24.47
2023-10-27T23:36:39.026Z,24.77
2023-10-27T23:39:07.129Z,21.47
2023-10-27T23:41:34.613Z,22.40
2023-10-27T23:44:02.036Z,25.23
2023-10-27T23:46:29.505Z,23.97
2023-10-27T23:48:57.229Z,24.77
2023-10-27T23:51:24.554Z,24.33
2023-10-27T23:53:51.891Z,31.00
2023-10-27T23:56:19.250Z,26.40
2023-10-27T23:58:46.778Z,22.50
